sensor_id;sensor_type;location;lat;lon;timestamp;P1;durP1;ratioP1;P2;durP2;ratioP2
7703;SDS011;3894;49.700;10.770;2022-12-18T00:00:47;31.27;;;13.27;;
7703;SDS011;3894;49.700;10.770;2022-12-18T00:03:16;34.65;;;12.23;;
7703;SDS011;3894;49.700;10.770;2022-12-18T00:08:14;23.42;;;12.27;;
7703;SDS011;3894;49.700;10.770;2022-12-18T00:10:40;31.05;;;11.30;;
7703;SDS011;3894;49.700;10.770;2022-12-18T00:13:06;22.98;;;10.80;;
7703;SDS011;3894;49.700;10.770;2022-12-18T00:15:33;31.88;;;13.35;;
7703;SDS011;3894;49.700;10.770;2022-12-18T00:17:59;31.65;;;15.95;;
7703;SDS011;3894;49.700;10.770;2022-12-18T00:20:25;32.28;;;15.68;;
7703;SDS011;3894;49.700;10.770;2022-12-18T00:22:51;38.88;;;13.25;;
7703;SDS011;3894;49.700;10.770;2022-12-18T00:25:18;51.88;;;17.55;;
7703;SDS011;3894;49.700;10.770;2022-12-18T00:27:43;52.58;;;20.13;;
7703;SDS011;3894;49.700;10.770;2022-12-18T00:30:09;47.13;;;16.60;;
7703;SDS011;3894;49.700;10.770;2022-12-18T00:32:35;39.15;;;16.33;;
7703;SDS011;3894;49.700;10.770;2022-12-18T00:35:02;33.67;;;13.43;;
7703;SDS011;3894;49.700;10.770;2022-12-18T00:37:28;34.83;;;13.55;;
7703;SDS011;3894;49.700;10.770;2022-12-18T00:39:54;35.80;;;13.23;;
7703;SDS011;3894;49.700;10.770;2022-12-18T00:42:19;32.08;;;15.35;;
7703;SDS011;3894;49.700;10.770;2022-12-18T00:45:04;38.08;;;13.75;;
7703;SDS011;3894;49.700;10.770;2022-12-18T00:47:30;27.08;;;14.35;;
7703;SDS011;3894;49.700;10.770;2022-12-18T00:49:56;38.88;;;14.88;;
7703;SDS011;3894;49.700;10.770;2022-12-18T00:52:21;41.72;;;15.40;;
7703;SDS011;3894;49.700;10.770;2022-12-18T00:54:47;36.97;;;14.70;;
7703;SDS011;3894;49.700;10.770;2022-12-18T00:57:16;34.25;;;13.60;;
7703;SDS011;3894;49.700;10.770;2022-12-18T00:59:41;33.95;;;14.68;;
7703;SDS011;3894;49.700;10.770;2022-12-18T01:02:07;31.90;;;12.95;;
7703;SDS011;3894;49.700;10.770;2022-12-18T01:04:33;27.80;;;13.77;;
7703;SDS011;3894;49.700;10.770;2022-12-18T01:07:05;31.80;;;13.88;;
7703;SDS011;3894;49.700;10.770;2022-12-18T01:09:31;34.65;;;15.95;;
7703;SDS011;3894;49.700;10.770;2022-12-18T01:11:56;28.38;;;12.07;;
7703;SDS011;3894;49.700;10.770;2022-12-18T01:14:22;34.45;;;14.52;;
7703;SDS011;3894;49.700;10.770;2022-12-18T01:16:48;34.17;;;13.13;;
7703;SDS011;3894;49.700;10.770;2022-12-18T01:19:13;27.08;;;11.25;;
7703;SDS011;3894;49.700;10.770;2022-12-18T01:21:39;29.73;;;11.85;;
7703;SDS011;3894;49.700;10.770;2022-12-18T01:24:05;40.47;;;15.15;;
7703;SDS011;3894;49.700;10.770;2022-12-18T01:26:30;39.10;;;15.18;;
7703;SDS011;3894;49.700;10.770;2022-12-18T01:28:56;33.22;;;13.73;;
7703;SDS011;3894;49.700;10.770;2022-12-18T01:31:24;36.88;;;14.07;;
7703;SDS011;3894;49.700;10.770;2022-12-18T01:36:18;37.60;;;12.35;;
7703;SDS011;3894;49.700;10.770;2022-12-18T01:38:46;31.92;;;13.55;;
7703;SDS011;3894;49.700;10.770;2022-12-18T01:41:12;27.17;;;13.05;;
7703;SDS011;3894;49.700;10.770;2022-12-18T01:43:43;30.40;;;12.30;;
7703;SDS011;3894;49.700;10.770;2022-12-18T01:46:10;34.97;;;13.88;;
7703;SDS011;3894;49.700;10.770;2022-12-18T01:48:37;29.70;;;11.43;;
7703;SDS011;3894;49.700;10.770;2022-12-18T01:51:04;27.10;;;14.55;;
7703;SDS011;3894;49.700;10.770;2022-12-18T01:53:31;31.17;;;13.88;;
7703;SDS011;3894;49.700;10.770;2022-12-18T01:55:57;31.83;;;13.63;;
7703;SDS011;3894;49.700;10.770;2022-12-18T01:58:27;36.17;;;14.93;;
7703;SDS011;3894;49.700;10.770;2022-12-18T02:01:11;41.63;;;15.07;;
7703;SDS011;3894;49.700;10.770;2022-12-18T02:03:37;29.58;;;12.93;;
7703;SDS011;3894;49.700;10.770;2022-12-18T02:06:07;33.17;;;13.75;;
7703;SDS011;3894;49.700;10.770;2022-12-18T02:08:42;28.70;;;14.98;;
7703;SDS011;3894;49.700;10.770;2022-12-18T02:14:35;30.40;;;12.57;;
7703;SDS011;3894;49.700;10.770;2022-12-18T02:24:59;23.60;;;9.35;;
7703;SDS011;3894;49.700;10.770;2022-12-18T02:27:28;30.05;;;13.23;;
7703;SDS011;3894;49.700;10.770;2022-12-18T02:29:56;25.58;;;11.85;;
7703;SDS011;3894;49.700;10.770;2022-12-18T02:32:25;31.88;;;13.07;;
7703;SDS011;3894;49.700;10.770;2022-12-18T02:34:55;33.17;;;13.90;;
7703;SDS011;3894;49.700;10.770;2022-12-18T02:37:23;36.45;;;11.73;;
7703;SDS011;3894;49.700;10.770;2022-12-18T02:39:51;28.45;;;11.60;;
7703;SDS011;3894;49.700;10.770;2022-12-18T02:44:46;24.02;;;12.07;;
7703;SDS011;3894;49.700;10.770;2022-12-18T02:47:17;33.05;;;12.45;;
7703;SDS011;3894;49.700;10.770;2022-12-18T03:01:38;34.60;;;14.35;;
7703;SDS011;3894;49.700;10.770;2022-12-18T03:07:05;27.50;;;12.18;;
7703;SDS011;3894;49.700;10.770;2022-12-18T03:09:36;41.20;;;14.27;;
7703;SDS011;3894;49.700;10.770;2022-12-18T03:12:10;29.95;;;14.43;;
7703;SDS011;3894;49.700;10.770;2022-12-18T03:14:48;35.15;;;12.63;;
7703;SDS011;3894;49.700;10.770;2022-12-18T03:17:17;38.03;;;13.73;;
7703;SDS011;3894;49.700;10.770;2022-12-18T03:19:47;25.10;;;11.40;;
7703;SDS011;3894;49.700;10.770;2022-12-18T03:22:16;31.92;;;13.85;;
7703;SDS011;3894;49.700;10.770;2022-12-18T03:24:44;38.08;;;12.50;;
7703;SDS011;3894;49.700;10.770;2022-12-18T03:27:12;33.42;;;13.27;;
7703;SDS011;3894;49.700;10.770;2022-12-18T03:29:43;34.10;;;13.80;;
7703;SDS011;3894;49.700;10.770;2022-12-18T03:32:33;26.73;;;12.20;;
7703;SDS011;3894;49.700;10.770;2022-12-18T03:35:05;30.17;;;12.00;;
7703;SDS011;3894;49.700;10.770;2022-12-18T03:37:33;32.30;;;13.35;;
7703;SDS011;3894;49.700;10.770;2022-12-18T03:39:59;36.13;;;13.90;;
7703;SDS011;3894;49.700;10.770;2022-12-18T03:42:26;31.05;;;13.18;;
7703;SDS011;3894;49.700;10.770;2022-12-18T03:45:31;33.72;;;11.73;;
7703;SDS011;3894;49.700;10.770;2022-12-18T03:50:53;29.13;;;11.77;;
7703;SDS011;3894;49.700;10.770;2022-12-18T03:56:06;23.85;;;10.93;;
7703;SDS011;3894;49.700;10.770;2022-12-18T03:58:34;30.40;;;12.98;;
7703;SDS011;3894;49.700;10.770;2022-12-18T04:03:29;27.77;;;11.82;;
7703;SDS011;3894;49.700;10.770;2022-12-18T04:05:57;34.22;;;11.63;;
7703;SDS011;3894;49.700;10.770;2022-12-18T04:08:25;36.17;;;14.23;;
7703;SDS011;3894;49.700;10.770;2022-12-18T04:10:52;41.28;;;11.40;;
7703;SDS011;3894;49.700;10.770;2022-12-18T04:13:52;31.55;;;10.40;;
7703;SDS011;3894;49.700;10.770;2022-12-18T04:16:09;27.08;;;11.75;;
7703;SDS011;3894;49.700;10.770;2022-12-18T04:18:35;31.30;;;11.68;;
7703;SDS011;3894;49.700;10.770;2022-12-18T04:21:01;33.03;;;11.70;;
7703;SDS011;3894;49.700;10.770;2022-12-18T04:23:27;25.50;;;11.63;;
7703;SDS011;3894;49.700;10.770;2022-12-18T04:25:53;36.35;;;13.35;;
7703;SDS011;3894;49.700;10.770;2022-12-18T04:28:19;35.08;;;11.60;;
7703;SDS011;3894;49.700;10.770;2022-12-18T04:30:45;28.92;;;10.18;;
7703;SDS011;3894;49.700;10.770;2022-12-18T04:33:11;42.10;;;13.40;;
7703;SDS011;3894;49.700;10.770;2022-12-18T04:35:38;31.90;;;12.82;;
7703;SDS011;3894;49.700;10.770;2022-12-18T04:38:05;31.67;;;11.57;;
7703;SDS011;3894;49.700;10.770;2022-12-18T04:40:33;38.88;;;14.32;;
7703;SDS011;3894;49.700;10.770;2022-12-18T04:43:01;33.90;;;11.88;;
7703;SDS011;3894;49.700;10.770;2022-12-18T04:45:26;49.58;;;14.70;;
7703;SDS011;3894;49.700;10.770;2022-12-18T04:47:52;39.20;;;13.77;;
7703;SDS011;3894;49.700;10.770;2022-12-18T04:50:18;37.00;;;12.23;;
7703;SDS011;3894;49.700;10.770;2022-12-18T04:52:43;41.55;;;13.65;;
7703;SDS011;3894;49.700;10.770;2022-12-18T04:55:09;35.25;;;13.55;;
7703;SDS011;3894;49.700;10.770;2022-12-18T04:57:35;40.80;;;14.52;;
7703;SDS011;3894;49.700;10.770;2022-12-18T05:00:00;36.05;;;12.55;;
7703;SDS011;3894;49.700;10.770;2022-12-18T05:02:26;37.00;;;12.90;;
7703;SDS011;3894;49.700;10.770;2022-12-18T05:04:52;43.50;;;13.68;;
7703;SDS011;3894;49.700;10.770;2022-12-18T05:07:17;34.00;;;10.38;;
7703;SDS011;3894;49.700;10.770;2022-12-18T05:09:43;40.25;;;12.40;;
7703;SDS011;3894;49.700;10.770;2022-12-18T05:12:09;30.10;;;11.57;;
7703;SDS011;3894;49.700;10.770;2022-12-18T05:14:34;43.72;;;12.60;;
7703;SDS011;3894;49.700;10.770;2022-12-18T05:17:00;30.48;;;11.02;;
7703;SDS011;3894;49.700;10.770;2022-12-18T05:19:26;31.08;;;11.32;;
7703;SDS011;3894;49.700;10.770;2022-12-18T05:21:51;35.17;;;11.98;;
7703;SDS011;3894;49.700;10.770;2022-12-18T05:24:17;38.58;;;13.57;;
7703;SDS011;3894;49.700;10.770;2022-12-18T05:26:46;29.02;;;10.88;;
7703;SDS011;3894;49.700;10.770;2022-12-18T05:29:11;33.45;;;11.02;;
7703;SDS011;3894;49.700;10.770;2022-12-18T05:31:37;35.40;;;12.48;;
7703;SDS011;3894;49.700;10.770;2022-12-18T05:34:03;32.63;;;11.77;;
7703;SDS011;3894;49.700;10.770;2022-12-18T05:36:29;32.45;;;9.98;;
7703;SDS011;3894;49.700;10.770;2022-12-18T05:38:55;29.10;;;9.52;;
7703;SDS011;3894;49.700;10.770;2022-12-18T05:41:21;28.38;;;10.77;;
7703;SDS011;3894;49.700;10.770;2022-12-18T05:43:46;30.83;;;11.20;;
7703;SDS011;3894;49.700;10.770;2022-12-18T05:46:13;35.22;;;11.75;;
7703;SDS011;3894;49.700;10.770;2022-12-18T05:48:41;21.58;;;9.63;;
7703;SDS011;3894;49.700;10.770;2022-12-18T05:51:08;35.88;;;11.02;;
7703;SDS011;3894;49.700;10.770;2022-12-18T05:53:39;31.98;;;9.63;;
7703;SDS011;3894;49.700;10.770;2022-12-18T05:56:06;25.00;;;10.57;;
7703;SDS011;3894;49.700;10.770;2022-12-18T05:58:33;30.63;;;9.57;;
7703;SDS011;3894;49.700;10.770;2022-12-18T06:01:06;31.70;;;9.50;;
7703;SDS011;3894;49.700;10.770;2022-12-18T06:03:36;41.58;;;11.68;;
7703;SDS011;3894;49.700;10.770;2022-12-18T06:06:01;28.73;;;9.57;;
7703;SDS011;3894;49.700;10.770;2022-12-18T06:08:27;29.02;;;9.55;;
7703;SDS011;3894;49.700;10.770;2022-12-18T06:10:53;43.60;;;11.82;;
7703;SDS011;3894;49.700;10.770;2022-12-18T06:13:19;30.10;;;11.05;;
7703;SDS011;3894;49.700;10.770;2022-12-18T06:15:45;29.00;;;11.13;;
7703;SDS011;3894;49.700;10.770;2022-12-18T06:18:11;25.63;;;7.60;;
7703;SDS011;3894;49.700;10.770;2022-12-18T06:20:37;25.35;;;8.98;;
7703;SDS011;3894;49.700;10.770;2022-12-18T06:23:04;24.98;;;8.05;;
7703;SDS011;3894;49.700;10.770;2022-12-18T06:25:30;29.88;;;9.13;;
7703;SDS011;3894;49.700;10.770;2022-12-18T06:27:56;26.52;;;10.60;;
7703;SDS011;3894;49.700;10.770;2022-12-18T06:30:22;29.15;;;8.82;;
7703;SDS011;3894;49.700;10.770;2022-12-18T06:32:48;31.92;;;9.68;;
7703;SDS011;3894;49.700;10.770;2022-12-18T06:35:17;30.55;;;10.30;;
7703;SDS011;3894;49.700;10.770;2022-12-18T06:37:42;30.25;;;10.50;;
7703;SDS011;3894;49.700;10.770;2022-12-18T06:40:11;26.15;;;8.63;;
7703;SDS011;3894;49.700;10.770;2022-12-18T06:42:36;31.25;;;10.80;;
7703;SDS011;3894;49.700;10.770;2022-12-18T06:45:02;29.70;;;8.43;;
7703;SDS011;3894;49.700;10.770;2022-12-18T06:47:28;27.40;;;8.30;;
7703;SDS011;3894;49.700;10.770;2022-12-18T06:49:54;22.60;;;8.88;;
7703;SDS011;3894;49.700;10.770;2022-12-18T06:52:19;29.25;;;10.40;;
7703;SDS011;3894;49.700;10.770;2022-12-18T06:54:45;26.65;;;9.30;;
7703;SDS011;3894;49.700;10.770;2022-12-18T06:57:10;23.23;;;7.43;;
7703;SDS011;3894;49.700;10.770;2022-12-18T06:59:42;26.48;;;9.43;;
7703;SDS011;3894;49.700;10.770;2022-12-18T07:02:10;50.22;;;19.48;;
7703;SDS011;3894;49.700;10.770;2022-12-18T07:04:37;27.88;;;10.15;;
7703;SDS011;3894;49.700;10.770;2022-12-18T07:07:03;21.58;;;7.90;;
7703;SDS011;3894;49.700;10.770;2022-12-18T07:09:28;26.45;;;8.95;;
7703;SDS011;3894;49.700;10.770;2022-12-18T07:11:54;22.17;;;8.43;;
7703;SDS011;3894;49.700;10.770;2022-12-18T07:14:20;28.27;;;9.40;;
7703;SDS011;3894;49.700;10.770;2022-12-18T07:16:45;21.52;;;8.75;;
7703;SDS011;3894;49.700;10.770;2022-12-18T07:19:14;22.60;;;8.35;;
7703;SDS011;3894;49.700;10.770;2022-12-18T07:21:52;23.63;;;9.30;;
7703;SDS011;3894;49.700;10.770;2022-12-18T07:24:17;27.40;;;8.13;;
7703;SDS011;3894;49.700;10.770;2022-12-18T07:26:45;26.83;;;9.05;;
7703;SDS011;3894;49.700;10.770;2022-12-18T07:29:11;23.27;;;8.98;;
7703;SDS011;3894;49.700;10.770;2022-12-18T07:31:37;25.42;;;8.10;;
7703;SDS011;3894;49.700;10.770;2022-12-18T07:34:02;23.02;;;8.45;;
7703;SDS011;3894;49.700;10.770;2022-12-18T07:36:28;25.63;;;9.45;;
7703;SDS011;3894;49.700;10.770;2022-12-18T07:38:54;23.67;;;9.60;;
7703;SDS011;3894;49.700;10.770;2022-12-18T07:41:19;25.73;;;8.77;;
7703;SDS011;3894;49.700;10.770;2022-12-18T07:43:46;29.38;;;11.00;;
7703;SDS011;3894;49.700;10.770;2022-12-18T07:46:12;25.50;;;9.05;;
7703;SDS011;3894;49.700;10.770;2022-12-18T07:48:39;23.05;;;8.48;;
7703;SDS011;3894;49.700;10.770;2022-12-18T07:51:06;31.02;;;12.57;;
7703;SDS011;3894;49.700;10.770;2022-12-18T07:53:32;23.88;;;9.35;;
7703;SDS011;3894;49.700;10.770;2022-12-18T07:55:59;25.10;;;7.78;;
7703;SDS011;3894;49.700;10.770;2022-12-18T07:58:27;25.50;;;8.85;;
7703;SDS011;3894;49.700;10.770;2022-12-18T08:00:53;26.33;;;8.65;;
7703;SDS011;3894;49.700;10.770;2022-12-18T08:03:19;25.35;;;7.72;;
7703;SDS011;3894;49.700;10.770;2022-12-18T08:05:45;21.77;;;9.80;;
7703;SDS011;3894;49.700;10.770;2022-12-18T08:08:11;26.67;;;8.80;;
7703;SDS011;3894;49.700;10.770;2022-12-18T08:10:37;25.55;;;7.90;;
7703;SDS011;3894;49.700;10.770;2022-12-18T08:13:03;23.45;;;8.88;;
7703;SDS011;3894;49.700;10.770;2022-12-18T08:15:29;21.48;;;7.63;;
7703;SDS011;3894;49.700;10.770;2022-12-18T08:17:58;22.67;;;8.15;;
7703;SDS011;3894;49.700;10.770;2022-12-18T08:20:23;24.45;;;7.75;;
7703;SDS011;3894;49.700;10.770;2022-12-18T08:22:49;25.67;;;8.48;;
7703;SDS011;3894;49.700;10.770;2022-12-18T08:25:15;20.38;;;6.20;;
7703;SDS011;3894;49.700;10.770;2022-12-18T08:27:41;21.70;;;8.50;;
7703;SDS011;3894;49.700;10.770;2022-12-18T08:30:06;27.48;;;8.98;;
7703;SDS011;3894;49.700;10.770;2022-12-18T08:32:33;23.45;;;8.13;;
7703;SDS011;3894;49.700;10.770;2022-12-18T08:34:58;25.88;;;8.70;;
7703;SDS011;3894;49.700;10.770;2022-12-18T08:37:24;27.10;;;10.50;;
7703;SDS011;3894;49.700;10.770;2022-12-18T08:39:50;30.50;;;8.85;;
7703;SDS011;3894;49.700;10.770;2022-12-18T08:42:16;26.60;;;9.32;;
7703;SDS011;3894;49.700;10.770;2022-12-18T08:45:00;22.83;;;7.25;;
7703;SDS011;3894;49.700;10.770;2022-12-18T08:47:26;26.50;;;9.45;;
7703;SDS011;3894;49.700;10.770;2022-12-18T08:49:52;23.05;;;7.93;;
7703;SDS011;3894;49.700;10.770;2022-12-18T08:52:18;29.55;;;11.98;;
7703;SDS011;3894;49.700;10.770;2022-12-18T08:54:43;26.70;;;7.70;;
7703;SDS011;3894;49.700;10.770;2022-12-18T08:57:09;22.50;;;8.07;;
7703;SDS011;3894;49.700;10.770;2022-12-18T08:59:34;25.73;;;9.55;;
7703;SDS011;3894;49.700;10.770;2022-12-18T09:02:00;20.40;;;7.50;;
7703;SDS011;3894;49.700;10.770;2022-12-18T09:04:26;22.25;;;8.05;;
7703;SDS011;3894;49.700;10.770;2022-12-18T09:06:51;26.20;;;7.72;;
7703;SDS011;3894;49.700;10.770;2022-12-18T09:09:17;26.50;;;9.57;;
7703;SDS011;3894;49.700;10.770;2022-12-18T09:11:43;28.05;;;7.45;;
7703;SDS011;3894;49.700;10.770;2022-12-18T09:14:09;21.75;;;7.03;;
7703;SDS011;3894;49.700;10.770;2022-12-18T09:16:35;23.92;;;7.28;;
7703;SDS011;3894;49.700;10.770;2022-12-18T09:19:01;22.05;;;7.78;;
7703;SDS011;3894;49.700;10.770;2022-12-18T09:21:29;26.48;;;9.07;;
7703;SDS011;3894;49.700;10.770;2022-12-18T09:23:56;27.05;;;8.18;;
7703;SDS011;3894;49.700;10.770;2022-12-18T09:26:22;19.58;;;7.75;;
7703;SDS011;3894;49.700;10.770;2022-12-18T09:28:48;21.50;;;8.18;;
7703;SDS011;3894;49.700;10.770;2022-12-18T09:31:21;25.08;;;7.63;;
7703;SDS011;3894;49.700;10.770;2022-12-18T09:33:49;23.65;;;8.75;;
7703;SDS011;3894;49.700;10.770;2022-12-18T09:36:15;27.20;;;8.35;;
7703;SDS011;3894;49.700;10.770;2022-12-18T09:38:42;21.40;;;8.55;;
7703;SDS011;3894;49.700;10.770;2022-12-18T09:41:21;20.00;;;6.75;;
7703;SDS011;3894;49.700;10.770;2022-12-18T09:49:30;29.08;;;8.80;;
7703;SDS011;3894;49.700;10.770;2022-12-18T09:52:23;27.05;;;9.00;;
7703;SDS011;3894;49.700;10.770;2022-12-18T09:54:59;24.33;;;7.35;;
7703;SDS011;3894;49.700;10.770;2022-12-18T09:57:29;26.55;;;7.28;;
7703;SDS011;3894;49.700;10.770;2022-12-18T09:59:59;28.38;;;9.73;;
7703;SDS011;3894;49.700;10.770;2022-12-18T10:02:32;23.67;;;9.02;;
7703;SDS011;3894;49.700;10.770;2022-12-18T10:08:16;28.05;;;9.80;;
7703;SDS011;3894;49.700;10.770;2022-12-18T10:13:23;28.98;;;8.85;;
7703;SDS011;3894;49.700;10.770;2022-12-18T10:16:00;24.40;;;7.63;;
7703;SDS011;3894;49.700;10.770;2022-12-18T10:18:34;29.90;;;8.90;;
7703;SDS011;3894;49.700;10.770;2022-12-18T10:21:21;25.13;;;7.38;;
7703;SDS011;3894;49.700;10.770;2022-12-18T10:26:52;21.23;;;6.75;;
7703;SDS011;3894;49.700;10.770;2022-12-18T10:29:25;23.23;;;8.43;;
7703;SDS011;3894;49.700;10.770;2022-12-18T10:31:50;18.95;;;6.00;;
7703;SDS011;3894;49.700;10.770;2022-12-18T10:34:16;22.17;;;7.28;;
7703;SDS011;3894;49.700;10.770;2022-12-18T10:36:41;25.23;;;7.55;;
7703;SDS011;3894;49.700;10.770;2022-12-18T10:39:14;26.52;;;7.88;;
7703;SDS011;3894;49.700;10.770;2022-12-18T10:41:44;27.60;;;8.25;;
7703;SDS011;3894;49.700;10.770;2022-12-18T10:46:42;23.00;;;8.90;;
7703;SDS011;3894;49.700;10.770;2022-12-18T10:49:18;23.27;;;7.82;;
7703;SDS011;3894;49.700;10.770;2022-12-18T10:51:46;22.83;;;7.40;;
7703;SDS011;3894;49.700;10.770;2022-12-18T10:54:14;22.60;;;7.32;;
7703;SDS011;3894;49.700;10.770;2022-12-18T10:56:41;26.83;;;8.23;;
7703;SDS011;3894;49.700;10.770;2022-12-18T10:59:08;25.20;;;7.75;;
7703;SDS011;3894;49.700;10.770;2022-12-18T11:04:21;24.40;;;6.18;;
7703;SDS011;3894;49.700;10.770;2022-12-18T11:06:52;26.52;;;7.72;;
7703;SDS011;3894;49.700;10.770;2022-12-18T11:09:24;23.00;;;7.55;;
7703;SDS011;3894;49.700;10.770;2022-12-18T11:11:54;25.98;;;7.28;;
7703;SDS011;3894;49.700;10.770;2022-12-18T11:14:26;26.02;;;8.27;;
7703;SDS011;3894;49.700;10.770;2022-12-18T11:16:54;21.63;;;7.03;;
7703;SDS011;3894;49.700;10.770;2022-12-18T11:19:34;26.75;;;7.85;;
7703;SDS011;3894;49.700;10.770;2022-12-18T11:25:38;23.80;;;6.70;;
7703;SDS011;3894;49.700;10.770;2022-12-18T11:27:41;19.98;;;7.03;;
7703;SDS011;3894;49.700;10.770;2022-12-18T11:30:26;24.67;;;7.80;;
7703;SDS011;3894;49.700;10.770;2022-12-18T11:35:58;22.52;;;7.85;;
7703;SDS011;3894;49.700;10.770;2022-12-18T11:38:39;21.23;;;6.80;;
7703;SDS011;3894;49.700;10.770;2022-12-18T11:41:21;21.20;;;7.13;;
7703;SDS011;3894;49.700;10.770;2022-12-18T11:44:13;28.02;;;6.55;;
7703;SDS011;3894;49.700;10.770;2022-12-18T11:46:45;25.17;;;6.47;;
7703;SDS011;3894;49.700;10.770;2022-12-18T11:49:28;19.98;;;6.22;;
7703;SDS011;3894;49.700;10.770;2022-12-18T11:54:34;20.85;;;6.85;;
7703;SDS011;3894;49.700;10.770;2022-12-18T11:57:14;20.15;;;6.20;;
7703;SDS011;3894;49.700;10.770;2022-12-18T12:10:56;20.98;;;6.75;;
7703;SDS011;3894;49.700;10.770;2022-12-18T12:13:45;21.73;;;6.63;;
7703;SDS011;3894;49.700;10.770;2022-12-18T12:21:42;19.10;;;7.07;;
7703;SDS011;3894;49.700;10.770;2022-12-18T12:34:49;22.30;;;7.10;;
7703;SDS011;3894;49.700;10.770;2022-12-18T12:37:31;18.92;;;6.68;;
7703;SDS011;3894;49.700;10.770;2022-12-18T12:40:00;22.20;;;7.70;;
7703;SDS011;3894;49.700;10.770;2022-12-18T12:42:39;23.05;;;7.05;;
7703;SDS011;3894;49.700;10.770;2022-12-18T12:45:31;22.85;;;8.10;;
7703;SDS011;3894;49.700;10.770;2022-12-18T12:48:04;27.08;;;8.82;;
7703;SDS011;3894;49.700;10.770;2022-12-18T12:50:38;19.15;;;6.30;;
7703;SDS011;3894;49.700;10.770;2022-12-18T12:53:06;19.35;;;5.68;;
7703;SDS011;3894;49.700;10.770;2022-12-18T12:58:06;19.90;;;6.05;;
7703;SDS011;3894;49.700;10.770;2022-12-18T13:03:27;24.20;;;6.03;;
7703;SDS011;3894;49.700;10.770;2022-12-18T13:09:12;25.33;;;7.63;;
7703;SDS011;3894;49.700;10.770;2022-12-18T13:11:39;18.55;;;5.25;;
7703;SDS011;3894;49.700;10.770;2022-12-18T13:14:43;24.42;;;6.95;;
7703;SDS011;3894;49.700;10.770;2022-12-18T13:17:30;18.30;;;5.85;;
7703;SDS011;3894;49.700;10.770;2022-12-18T13:20:03;21.55;;;6.97;;
7703;SDS011;3894;49.700;10.770;2022-12-18T13:22:36;22.13;;;7.55;;
7703;SDS011;3894;49.700;10.770;2022-12-18T13:28:03;28.02;;;7.80;;
7703;SDS011;3894;49.700;10.770;2022-12-18T13:35:42;22.13;;;7.38;;
7703;SDS011;3894;49.700;10.770;2022-12-18T13:38:37;19.08;;;6.75;;
7703;SDS011;3894;49.700;10.770;2022-12-18T13:43:47;25.88;;;8.93;;
7703;SDS011;3894;49.700;10.770;2022-12-18T13:46:19;21.80;;;7.28;;
7703;SDS011;3894;49.700;10.770;2022-12-18T13:51:40;22.48;;;7.03;;
7703;SDS011;3894;49.700;10.770;2022-12-18T13:54:28;24.52;;;7.75;;
7703;SDS011;3894;49.700;10.770;2022-12-18T13:57:04;23.10;;;7.35;;
7703;SDS011;3894;49.700;10.770;2022-12-18T13:59:49;22.10;;;8.32;;
7703;SDS011;3894;49.700;10.770;2022-12-18T14:02:16;26.92;;;8.10;;
7703;SDS011;3894;49.700;10.770;2022-12-18T14:04:46;20.98;;;7.40;;
7703;SDS011;3894;49.700;10.770;2022-12-18T14:07:23;21.20;;;7.40;;
7703;SDS011;3894;49.700;10.770;2022-12-18T14:09:51;22.20;;;8.02;;
7703;SDS011;3894;49.700;10.770;2022-12-18T14:12:22;26.27;;;7.68;;
7703;SDS011;3894;49.700;10.770;2022-12-18T14:15:31;22.20;;;7.63;;
7703;SDS011;3894;49.700;10.770;2022-12-18T14:18:01;20.95;;;7.55;;
7703;SDS011;3894;49.700;10.770;2022-12-18T14:20:28;23.75;;;7.70;;
7703;SDS011;3894;49.700;10.770;2022-12-18T14:22:56;29.92;;;7.90;;
7703;SDS011;3894;49.700;10.770;2022-12-18T14:25:26;21.52;;;7.88;;
7703;SDS011;3894;49.700;10.770;2022-12-18T14:28:07;22.63;;;8.15;;
7703;SDS011;3894;49.700;10.770;2022-12-18T14:30:40;24.05;;;7.30;;
7703;SDS011;3894;49.700;10.770;2022-12-18T14:33:10;25.50;;;7.43;;
7703;SDS011;3894;49.700;10.770;2022-12-18T14:35:41;26.55;;;7.55;;
7703;SDS011;3894;49.700;10.770;2022-12-18T14:38:21;28.88;;;7.35;;
7703;SDS011;3894;49.700;10.770;2022-12-18T14:40:54;22.90;;;8.25;;
7703;SDS011;3894;49.700;10.770;2022-12-18T14:43:28;23.80;;;8.23;;
7703;SDS011;3894;49.700;10.770;2022-12-18T14:45:56;25.15;;;7.50;;
7703;SDS011;3894;49.700;10.770;2022-12-18T14:48:38;21.27;;;7.32;;
7703;SDS011;3894;49.700;10.770;2022-12-18T14:53:41;23.10;;;7.15;;
7703;SDS011;3894;49.700;10.770;2022-12-18T14:56:12;23.08;;;7.75;;
7703;SDS011;3894;49.700;10.770;2022-12-18T14:58:48;20.52;;;7.10;;
7703;SDS011;3894;49.700;10.770;2022-12-18T15:01:33;23.15;;;7.30;;
7703;SDS011;3894;49.700;10.770;2022-12-18T15:04:02;19.85;;;6.80;;
7703;SDS011;3894;49.700;10.770;2022-12-18T15:06:31;27.23;;;7.80;;
7703;SDS011;3894;49.700;10.770;2022-12-18T15:11:47;21.55;;;7.60;;
7703;SDS011;3894;49.700;10.770;2022-12-18T15:14:23;18.35;;;6.15;;
7703;SDS011;3894;49.700;10.770;2022-12-18T15:16:56;23.42;;;7.63;;
7703;SDS011;3894;49.700;10.770;2022-12-18T15:19:37;20.75;;;7.28;;
7703;SDS011;3894;49.700;10.770;2022-12-18T15:22:14;24.52;;;7.70;;
7703;SDS011;3894;49.700;10.770;2022-12-18T15:24:48;20.75;;;8.13;;
7703;SDS011;3894;49.700;10.770;2022-12-18T15:27:28;23.50;;;8.05;;
7703;SDS011;3894;49.700;10.770;2022-12-18T15:32:35;24.63;;;7.95;;
7703;SDS011;3894;49.700;10.770;2022-12-18T15:37:33;21.27;;;7.18;;
7703;SDS011;3894;49.700;10.770;2022-12-18T15:39:59;20.73;;;7.70;;
7703;SDS011;3894;49.700;10.770;2022-12-18T15:42:24;22.40;;;7.05;;
7703;SDS011;3894;49.700;10.770;2022-12-18T15:45:12;18.75;;;6.30;;
7703;SDS011;3894;49.700;10.770;2022-12-18T15:47:38;19.77;;;6.38;;
7703;SDS011;3894;49.700;10.770;2022-12-18T15:50:04;22.13;;;7.93;;
7703;SDS011;3894;49.700;10.770;2022-12-18T15:52:31;23.13;;;8.40;;
7703;SDS011;3894;49.700;10.770;2022-12-18T15:55:05;21.52;;;7.40;;
7703;SDS011;3894;49.700;10.770;2022-12-18T15:57:54;18.73;;;7.22;;
7703;SDS011;3894;49.700;10.770;2022-12-18T16:00:19;25.38;;;7.68;;
7703;SDS011;3894;49.700;10.770;2022-12-18T16:02:45;22.77;;;7.03;;
7703;SDS011;3894;49.700;10.770;2022-12-18T16:05:14;29.02;;;10.20;;
7703;SDS011;3894;49.700;10.770;2022-12-18T16:07:42;39.63;;;16.00;;
7703;SDS011;3894;49.700;10.770;2022-12-18T16:10:08;48.33;;;15.50;;
7703;SDS011;3894;49.700;10.770;2022-12-18T16:12:33;47.80;;;17.17;;
7703;SDS011;3894;49.700;10.770;2022-12-18T16:15:00;45.28;;;18.55;;
7703;SDS011;3894;49.700;10.770;2022-12-18T16:17:25;42.15;;;17.02;;
7703;SDS011;3894;49.700;10.770;2022-12-18T16:19:51;31.60;;;11.30;;
7703;SDS011;3894;49.700;10.770;2022-12-18T16:22:21;26.40;;;13.75;;
7703;SDS011;3894;49.700;10.770;2022-12-18T16:27:17;24.85;;;9.07;;
7703;SDS011;3894;49.700;10.770;2022-12-18T16:29:43;22.08;;;8.10;;
7703;SDS011;3894;49.700;10.770;2022-12-18T16:32:11;19.50;;;7.38;;
7703;SDS011;3894;49.700;10.770;2022-12-18T16:34:39;16.05;;;6.47;;
7703;SDS011;3894;49.700;10.770;2022-12-18T16:37:07;23.45;;;6.72;;
7703;SDS011;3894;49.700;10.770;2022-12-18T16:39:34;20.33;;;6.47;;
7703;SDS011;3894;49.700;10.770;2022-12-18T16:42:01;21.92;;;7.80;;
7703;SDS011;3894;49.700;10.770;2022-12-18T16:44:28;24.92;;;7.90;;
7703;SDS011;3894;49.700;10.770;2022-12-18T16:46:53;19.48;;;7.07;;
7703;SDS011;3894;49.700;10.770;2022-12-18T16:49:19;19.40;;;7.63;;
7703;SDS011;3894;49.700;10.770;2022-12-18T16:51:46;22.83;;;7.38;;
7703;SDS011;3894;49.700;10.770;2022-12-18T16:54:12;23.08;;;8.40;;
7703;SDS011;3894;49.700;10.770;2022-12-18T16:56:38;22.08;;;7.32;;
7703;SDS011;3894;49.700;10.770;2022-12-18T16:59:04;22.60;;;8.52;;
7703;SDS011;3894;49.700;10.770;2022-12-18T17:01:31;23.60;;;8.77;;
7703;SDS011;3894;49.700;10.770;2022-12-18T17:03:58;18.50;;;8.25;;
7703;SDS011;3894;49.700;10.770;2022-12-18T17:06:26;24.88;;;8.38;;
7703;SDS011;3894;49.700;10.770;2022-12-18T17:08:54;22.15;;;7.72;;